sensor_id;sensor_type;location;lat;lon;timestamp;temperature;humidity
15247;DHT22;7726;48.820;9.248;2023-02-28T00:01:07;-1.90;98.30
15247;DHT22;7726;48.820;9.248;2023-02-28T00:03:34;-1.70;98.10
15247;DHT22;7726;48.820;9.248;2023-02-28T00:06:02;-1.70;98.00
15247;DHT22;7726;48.820;9.248;2023-02-28T00:08:30;-1.80;98.20
15247;DHT22;7726;48.820;9.248;2023-02-28T00:11:01;-1.80;98.10
15247;DHT22;7726;48.820;9.248;2023-02-28T00:13:28;-1.80;98.30
15247;DHT22;7726;48.820;9.248;2023-02-28T00:15:59;-1.90;98.40
15247;DHT22;7726;48.820;9.248;2023-02-28T00:18:26;-1.80;98.00
15247;DHT22;7726;48.820;9.248;2023-02-28T00:20:53;-1.80;98.20
15247;DHT22;7726;48.820;9.248;2023-02-28T00:23:20;-1.80;98.10
15247;DHT22;7726;48.820;9.248;2023-02-28T00:25:48;-1.80;98.20
15247;DHT22;7726;48.820;9.248;2023-02-28T00:28:15;-1.80;98.10
15247;DHT22;7726;48.820;9.248;2023-02-28T00:30:42;-1.80;98.40
15247;DHT22;7726;48.820;9.248;2023-02-28T00:33:09;-1.80;98.40
15247;DHT22;7726;48.820;9.248;2023-02-28T00:35:36;-1.90;98.50
15247;DHT22;7726;48.820;9.248;2023-02-28T00:38:03;-2.00;98.80
15247;DHT22;7726;48.820;9.248;2023-02-28T00:40:29;-1.90;98.80
15247;DHT22;7726;48.820;9.248;2023-02-28T00:42:58;-1.90;98.90
15247;DHT22;7726;48.820;9.248;2023-02-28T00:45:24;-1.90;98.80
15247;DHT22;7726;48.820;9.248;2023-02-28T00:47:51;-1.90;98.90
15247;DHT22;7726;48.820;9.248;2023-02-28T00:50:18;-1.80;98.90
15247;DHT22;7726;48.820;9.248;2023-02-28T00:52:46;-1.90;99.00
15247;DHT22;7726;48.820;9.248;2023-02-28T00:55:14;-1.90;99.20
15247;DHT22;7726;48.820;9.248;2023-02-28T00:57:41;-1.90;99.30
15247;DHT22;7726;48.820;9.248;2023-02-28T01:00:10;-1.90;99.60
15247;DHT22;7726;48.820;9.248;2023-02-28T01:02:37;-2.00;99.60
15247;DHT22;7726;48.820;9.248;2023-02-28T01:05:05;-2.00;99.60
15247;DHT22;7726;48.820;9.248;2023-02-28T01:07:31;-1.90;99.70
15247;DHT22;7726;48.820;9.248;2023-02-28T01:09:58;-2.00;99.90
15247;DHT22;7726;48.820;9.248;2023-02-28T01:12:25;-1.80;99.90
15247;DHT22;7726;48.820;9.248;2023-02-28T01:14:52;-2.00;99.90
15247;DHT22;7726;48.820;9.248;2023-02-28T01:17:20;-2.00;99.90
15247;DHT22;7726;48.820;9.248;2023-02-28T01:19:47;-2.00;99.90
15247;DHT22;7726;48.820;9.248;2023-02-28T01:22:14;-2.00;99.90
15247;DHT22;7726;48.820;9.248;2023-02-28T01:24:40;-2.00;99.90
15247;DHT22;7726;48.820;9.248;2023-02-28T01:27:07;-2.00;99.90
15247;DHT22;7726;48.820;9.248;2023-02-28T01:29:34;-2.00;99.90
15247;DHT22;7726;48.820;9.248;2023-02-28T01:32:01;-1.90;99.90
15247;DHT22;7726;48.820;9.248;2023-02-28T01:34:29;-2.00;99.90
15247;DHT22;7726;48.820;9.248;2023-02-28T01:36:56;-2.10;99.90
15247;DHT22;7726;48.820;9.248;2023-02-28T01:39:27;-2.00;99.90
15247;DHT22;7726;48.820;9.248;2023-02-28T01:41:53;-2.00;99.90
15247;DHT22;7726;48.820;9.248;2023-02-28T01:44:55;-2.10;99.90
15247;DHT22;7726;48.820;9.248;2023-02-28T01:47:24;-2.00;99.90
15247;DHT22;7726;48.820;9.248;2023-02-28T01:49:53;-2.00;99.90
15247;DHT22;7726;48.820;9.248;2023-02-28T01:52:21;-2.00;99.90
15247;DHT22;7726;48.820;9.248;2023-02-28T01:54:52;-1.90;99.90
15247;DHT22;7726;48.820;9.248;2023-02-28T01:57:23;-2.00;99.90
15247;DHT22;7726;48.820;9.248;2023-02-28T01:59:53;-2.00;99.90
15247;DHT22;7726;48.820;9.248;2023-02-28T02:02:22;-2.00;99.90
15247;DHT22;7726;48.820;9.248;2023-02-28T02:04:54;-2.00;99.90
15247;DHT22;7726;48.820;9.248;2023-02-28T02:07:23;-2.00;99.90
15247;DHT22;7726;48.820;9.248;2023-02-28T02:09:59;-2.00;99.90
15247;DHT22;7726;48.820;9.248;2023-02-28T02:12:39;-2.00;99.90
15247;DHT22;7726;48.820;9.248;2023-02-28T02:15:12;-2.00;99.90
15247;DHT22;7726;48.820;9.248;2023-02-28T02:17:43;-1.90;99.90
15247;DHT22;7726;48.820;9.248;2023-02-28T02:20:46;-2.00;99.90
15247;DHT22;7726;48.820;9.248;2023-02-28T02:26:43;-1.80;99.90
15247;DHT22;7726;48.820;9.248;2023-02-28T02:29:31;-1.80;99.90
15247;DHT22;7726;48.820;9.248;2023-02-28T02:35:04;-1.80;99.90
15247;DHT22;7726;48.820;9.248;2023-02-28T02:37:40;-1.80;99.90
15247;DHT22;7726;48.820;9.248;2023-02-28T02:40:13;-1.80;99.90
15247;DHT22;7726;48.820;9.248;2023-02-28T02:42:47;-1.70;99.90
15247;DHT22;7726;48.820;9.248;2023-02-28T02:45:19;-1.70;99.90
15247;DHT22;7726;48.820;9.248;2023-02-28T02:47:48;-1.70;99.90
15247;DHT22;7726;48.820;9.248;2023-02-28T02:50:20;-1.70;99.90
15247;DHT22;7726;48.820;9.248;2023-02-28T02:52:52;-1.60;99.90
15247;DHT22;7726;48.820;9.248;2023-02-28T02:55:22;-1.60;99.90
15247;DHT22;7726;48.820;9.248;2023-02-28T02:57:53;-1.60;99.90
15247;DHT22;7726;48.820;9.248;2023-02-28T03:00:24;-1.60;99.90
15247;DHT22;7726;48.820;9.248;2023-02-28T03:02:53;-1.60;99.90
15247;DHT22;7726;48.820;9.248;2023-02-28T03:05:25;-1.60;99.90
15247;DHT22;7726;48.820;9.248;2023-02-28T03:07:52;-1.60;99.90
15247;DHT22;7726;48.820;9.248;2023-02-28T03:10:32;-1.50;99.90
15247;DHT22;7726;48.820;9.248;2023-02-28T03:13:20;-1.50;99.90
15247;DHT22;7726;48.820;9.248;2023-02-28T03:16:01;-1.40;99.90
15247;DHT22;7726;48.820;9.248;2023-02-28T03:18:33;-1.40;99.90
15247;DHT22;7726;48.820;9.248;2023-02-28T03:21:08;-1.50;99.90
15247;DHT22;7726;48.820;9.248;2023-02-28T03:23:45;-1.40;99.90
15247;DHT22;7726;48.820;9.248;2023-02-28T03:26:19;-1.40;99.90
15247;DHT22;7726;48.820;9.248;2023-02-28T03:28:52;-1.40;99.90
15247;DHT22;7726;48.820;9.248;2023-02-28T03:31:27;-1.50;99.90
15247;DHT22;7726;48.820;9.248;2023-02-28T03:33:59;-1.40;99.90
15247;DHT22;7726;48.820;9.248;2023-02-28T03:36:31;-1.30;99.90
15247;DHT22;7726;48.820;9.248;2023-02-28T03:39:00;-1.40;99.90
15247;DHT22;7726;48.820;9.248;2023-02-28T03:41:32;-1.40;99.90
15247;DHT22;7726;48.820;9.248;2023-02-28T03:44:06;-1.30;99.90
15247;DHT22;7726;48.820;9.248;2023-02-28T03:46:38;-1.40;99.90
15247;DHT22;7726;48.820;9.248;2023-02-28T03:49:13;-1.20;99.90
15247;DHT22;7726;48.820;9.248;2023-02-28T03:51:43;-1.20;99.90
15247;DHT22;7726;48.820;9.248;2023-02-28T03:54:16;-1.20;99.90
15247;DHT22;7726;48.820;9.248;2023-02-28T03:56:50;-1.20;99.90
15247;DHT22;7726;48.820;9.248;2023-02-28T03:59:22;-1.20;99.90
15247;DHT22;7726;48.820;9.248;2023-02-28T04:01:52;-1.20;99.90
15247;DHT22;7726;48.820;9.248;2023-02-28T04:04:20;-1.20;99.90
15247;DHT22;7726;48.820;9.248;2023-02-28T04:06:51;-1.20;99.90
15247;DHT22;7726;48.820;9.248;2023-02-28T04:09:18;-1.20;99.90
15247;DHT22;7726;48.820;9.248;2023-02-28T04:11:47;-1.20;99.90
15247;DHT22;7726;48.820;9.248;2023-02-28T04:14:17;-1.20;99.90
15247;DHT22;7726;48.820;9.248;2023-02-28T04:16:44;-1.20;99.90
15247;DHT22;7726;48.820;9.248;2023-02-28T04:19:11;-1.20;99.90
15247;DHT22;7726;48.820;9.248;2023-02-28T04:21:41;-1.10;99.90
15247;DHT22;7726;48.820;9.248;2023-02-28T04:24:11;-1.10;99.90
15247;DHT22;7726;48.820;9.248;2023-02-28T04:26:40;-1.10;99.90
15247;DHT22;7726;48.820;9.248;2023-02-28T04:29:09;-1.00;99.90
15247;DHT22;7726;48.820;9.248;2023-02-28T04:31:36;-1.10;99.90
15247;DHT22;7726;48.820;9.248;2023-02-28T04:34:03;-1.00;99.90
15247;DHT22;7726;48.820;9.248;2023-02-28T04:36:30;-1.00;99.90
15247;DHT22;7726;48.820;9.248;2023-02-28T04:38:57;-1.00;99.90
15247;DHT22;7726;48.820;9.248;2023-02-28T04:41:25;-1.10;99.90
15247;DHT22;7726;48.820;9.248;2023-02-28T04:43:52;-1.00;99.90
15247;DHT22;7726;48.820;9.248;2023-02-28T04:46:19;-1.00;99.90
15247;DHT22;7726;48.820;9.248;2023-02-28T04:48:46;-0.90;99.90
15247;DHT22;7726;48.820;9.248;2023-02-28T04:51:15;-1.00;99.90
15247;DHT22;7726;48.820;9.248;2023-02-28T04:53:42;-1.00;99.90
15247;DHT22;7726;48.820;9.248;2023-02-28T04:56:12;-0.90;99.90
15247;DHT22;7726;48.820;9.248;2023-02-28T04:58:40;-0.90;99.90
15247;DHT22;7726;48.820;9.248;2023-02-28T05:01:17;-0.90;99.90
15247;DHT22;7726;48.820;9.248;2023-02-28T05:03:44;-0.90;99.90
15247;DHT22;7726;48.820;9.248;2023-02-28T05:06:12;-0.90;99.90
15247;DHT22;7726;48.820;9.248;2023-02-28T05:08:39;-0.90;99.90
15247;DHT22;7726;48.820;9.248;2023-02-28T05:11:08;-1.00;99.90
15247;DHT22;7726;48.820;9.248;2023-02-28T05:13:40;-0.90;99.90
15247;DHT22;7726;48.820;9.248;2023-02-28T05:16:07;-0.90;99.90
15247;DHT22;7726;48.820;9.248;2023-02-28T05:18:34;-0.90;99.90
15247;DHT22;7726;48.820;9.248;2023-02-28T05:21:00;-0.90;99.90
15247;DHT22;7726;48.820;9.248;2023-02-28T05:23:28;-0.80;99.90
15247;DHT22;7726;48.820;9.248;2023-02-28T05:25:55;-0.90;99.90
15247;DHT22;7726;48.820;9.248;2023-02-28T05:28:22;-0.80;99.90
15247;DHT22;7726;48.820;9.248;2023-02-28T05:30:50;-0.80;99.90
15247;DHT22;7726;48.820;9.248;2023-02-28T05:33:17;-0.90;99.90
15247;DHT22;7726;48.820;9.248;2023-02-28T05:35:43;-0.80;99.90
15247;DHT22;7726;48.820;9.248;2023-02-28T05:38:10;-0.90;99.90
15247;DHT22;7726;48.820;9.248;2023-02-28T05:40:38;-0.80;99.90
15247;DHT22;7726;48.820;9.248;2023-02-28T05:43:05;-0.80;99.90
15247;DHT22;7726;48.820;9.248;2023-02-28T05:45:32;-0.70;99.90
15247;DHT22;7726;48.820;9.248;2023-02-28T05:48:00;-0.80;99.90
15247;DHT22;7726;48.820;9.248;2023-02-28T05:50:27;-0.80;99.90
15247;DHT22;7726;48.820;9.248;2023-02-28T05:52:54;-0.90;99.90
15247;DHT22;7726;48.820;9.248;2023-02-28T05:55:21;-0.80;99.90
15247;DHT22;7726;48.820;9.248;2023-02-28T05:57:47;-0.70;99.90
15247;DHT22;7726;48.820;9.248;2023-02-28T06:00:15;-0.80;99.90
15247;DHT22;7726;48.820;9.248;2023-02-28T06:02:43;-0.80;99.90
15247;DHT22;7726;48.820;9.248;2023-02-28T06:05:14;-0.80;99.90
15247;DHT22;7726;48.820;9.248;2023-02-28T06:07:41;-0.70;99.90
15247;DHT22;7726;48.820;9.248;2023-02-28T06:10:10;-0.70;99.90
15247;DHT22;7726;48.820;9.248;2023-02-28T06:12:37;-0.70;99.90
15247;DHT22;7726;48.820;9.248;2023-02-28T06:15:05;-0.80;99.90
15247;DHT22;7726;48.820;9.248;2023-02-28T06:17:32;-0.80;99.90
15247;DHT22;7726;48.820;9.248;2023-02-28T06:19:58;-0.70;99.90
15247;DHT22;7726;48.820;9.248;2023-02-28T06:22:27;-0.70;99.90
15247;DHT22;7726;48.820;9.248;2023-02-28T06:24:53;-0.70;99.90
15247;DHT22;7726;48.820;9.248;2023-02-28T06:27:22;-0.70;99.90
15247;DHT22;7726;48.820;9.248;2023-02-28T06:29:52;-0.70;99.90
15247;DHT22;7726;48.820;9.248;2023-02-28T06:32:19;-0.60;99.90
15247;DHT22;7726;48.820;9.248;2023-02-28T06:34:46;-0.60;99.90
15247;DHT22;7726;48.820;9.248;2023-02-28T06:37:13;-0.70;99.90
15247;DHT22;7726;48.820;9.248;2023-02-28T06:39:41;-0.70;99.90
15247;DHT22;7726;48.820;9.248;2023-02-28T06:42:08;-0.70;99.90
15247;DHT22;7726;48.820;9.248;2023-02-28T06:44:35;-0.60;99.90
15247;DHT22;7726;48.820;9.248;2023-02-28T06:47:02;-0.60;99.90
15247;DHT22;7726;48.820;9.248;2023-02-28T06:49:30;-0.50;99.90
15247;DHT22;7726;48.820;9.248;2023-02-28T06:51:57;-0.60;99.90
15247;DHT22;7726;48.820;9.248;2023-02-28T06:54:24;-0.50;99.90
15247;DHT22;7726;48.820;9.248;2023-02-28T06:56:52;-0.50;99.90
15247;DHT22;7726;48.820;9.248;2023-02-28T06:59:20;-0.50;99.90
15247;DHT22;7726;48.820;9.248;2023-02-28T07:01:47;-0.50;99.90
15247;DHT22;7726;48.820;9.248;2023-02-28T07:04:13;-0.50;99.90
15247;DHT22;7726;48.820;9.248;2023-02-28T07:06:40;-0.40;99.90
15247;DHT22;7726;48.820;9.248;2023-02-28T07:09:07;-0.30;99.90
15247;DHT22;7726;48.820;9.248;2023-02-28T07:11:34;-0.30;99.90
15247;DHT22;7726;48.820;9.248;2023-02-28T07:14:02;-0.40;99.90
15247;DHT22;7726;48.820;9.248;2023-02-28T07:16:29;-0.40;99.90
15247;DHT22;7726;48.820;9.248;2023-02-28T07:18:56;-0.30;99.90
15247;DHT22;7726;48.820;9.248;2023-02-28T07:21:23;-0.30;99.90
15247;DHT22;7726;48.820;9.248;2023-02-28T07:23:50;-0.20;99.90
15247;DHT22;7726;48.820;9.248;2023-02-28T07:26:18;-0.20;99.90
15247;DHT22;7726;48.820;9.248;2023-02-28T07:28:47;-0.30;99.90
15247;DHT22;7726;48.820;9.248;2023-02-28T07:31:16;-0.20;99.90
15247;DHT22;7726;48.820;9.248;2023-02-28T07:33:43;-0.10;99.90
15247;DHT22;7726;48.820;9.248;2023-02-28T07:36:12;-0.20;99.90
15247;DHT22;7726;48.820;9.248;2023-02-28T07:38:41;-0.20;99.90
15247;DHT22;7726;48.820;9.248;2023-02-28T07:41:09;-0.10;99.90
15247;DHT22;7726;48.820;9.248;2023-02-28T07:43:36;-0.10;99.90
15247;DHT22;7726;48.820;9.248;2023-02-28T07:46:04;0.00;99.90
15247;DHT22;7726;48.820;9.248;2023-02-28T07:48:32;0.00;99.90
15247;DHT22;7726;48.820;9.248;2023-02-28T07:51:00;-0.20;99.90
15247;DHT22;7726;48.820;9.248;2023-02-28T07:53:28;-0.20;99.90
15247;DHT22;7726;48.820;9.248;2023-02-28T07:55:55;-0.20;99.90
15247;DHT22;7726;48.820;9.248;2023-02-28T07:58:22;-0.10;99.90
15247;DHT22;7726;48.820;9.248;2023-02-28T08:00:49;-0.20;99.90
15247;DHT22;7726;48.820;9.248;2023-02-28T08:03:17;-0.10;99.90
15247;DHT22;7726;48.820;9.248;2023-02-28T08:05:45;0.00;99.90
15247;DHT22;7726;48.820;9.248;2023-02-28T08:08:13;0.10;99.90
15247;DHT22;7726;48.820;9.248;2023-02-28T08:10:40;0.20;99.90
15247;DHT22;7726;48.820;9.248;2023-02-28T08:13:07;0.20;99.90
15247;DHT22;7726;48.820;9.248;2023-02-28T08:15:35;0.20;99.90
15247;DHT22;7726;48.820;9.248;2023-02-28T08:18:02;0.30;99.90
15247;DHT22;7726;48.820;9.248;2023-02-28T08:20:29;0.40;99.90
15247;DHT22;7726;48.820;9.248;2023-02-28T08:22:57;0.40;99.90
15247;DHT22;7726;48.820;9.248;2023-02-28T08:25:24;0.50;99.90
15247;DHT22;7726;48.820;9.248;2023-02-28T08:27:51;0.50;99.60
15247;DHT22;7726;48.820;9.248;2023-02-28T08:30:18;0.60;99.50
15247;DHT22;7726;48.820;9.248;2023-02-28T08:32:45;0.60;99.40
15247;DHT22;7726;48.820;9.248;2023-02-28T08:35:12;0.70;99.30
15247;DHT22;7726;48.820;9.248;2023-02-28T08:37:38;0.70;99.40
15247;DHT22;7726;48.820;9.248;2023-02-28T08:40:08;0.70;99.10
15247;DHT22;7726;48.820;9.248;2023-02-28T08:42:35;0.70;99.00
15247;DHT22;7726;48.820;9.248;2023-02-28T08:45:02;0.70;99.00
15247;DHT22;7726;48.820;9.248;2023-02-28T08:47:29;0.60;98.80
15247;DHT22;7726;48.820;9.248;2023-02-28T08:49:56;0.70;98.50
15247;DHT22;7726;48.820;9.248;2023-02-28T08:52:23;1.10;98.50
15247;DHT22;7726;48.820;9.248;2023-02-28T08:54:49;1.20;98.40
15247;DHT22;7726;48.820;9.248;2023-02-28T08:57:18;1.30;98.50
15247;DHT22;7726;48.820;9.248;2023-02-28T08:59:44;1.20;98.20
15247;DHT22;7726;48.820;9.248;2023-02-28T09:02:12;1.00;97.60
15247;DHT22;7726;48.820;9.248;2023-02-28T09:04:39;1.00;97.80
15247;DHT22;7726;48.820;9.248;2023-02-28T09:07:07;1.20;97.80
15247;DHT22;7726;48.820;9.248;2023-02-28T09:09:33;1.40;97.60
15247;DHT22;7726;48.820;9.248;2023-02-28T09:12:00;1.40;97.40
15247;DHT22;7726;48.820;9.248;2023-02-28T09:14:28;1.60;97.40
15247;DHT22;7726;48.820;9.248;2023-02-28T09:16:55;1.30;97.00
15247;DHT22;7726;48.820;9.248;2023-02-28T09:19:22;1.30;96.80
15247;DHT22;7726;48.820;9.248;2023-02-28T09:21:49;1.20;96.60
15247;DHT22;7726;48.820;9.248;2023-02-28T09:24:15;1.30;96.80
15247;DHT22;7726;48.820;9.248;2023-02-28T09:26:43;1.20;96.80
15247;DHT22;7726;48.820;9.248;2023-02-28T09:29:10;1.40;96.70
15247;DHT22;7726;48.820;9.248;2023-02-28T09:31:38;1.40;96.70
15247;DHT22;7726;48.820;9.248;2023-02-28T09:34:05;1.70;96.70
15247;DHT22;7726;48.820;9.248;2023-02-28T09:36:32;1.70;96.40
15247;DHT22;7726;48.820;9.248;2023-02-28T09:39:00;1.80;95.90
15247;DHT22;7726;48.820;9.248;2023-02-28T09:41:27;1.70;96.20
15247;DHT22;7726;48.820;9.248;2023-02-28T09:44:02;1.80;96.30
15247;DHT22;7726;48.820;9.248;2023-02-28T09:46:33;1.90;95.50
15247;DHT22;7726;48.820;9.248;2023-02-28T09:49:08;1.90;95.50
15247;DHT22;7726;48.820;9.248;2023-02-28T09:51:45;1.80;95.80
15247;DHT22;7726;48.820;9.248;2023-02-28T09:54:16;2.00;95.70
15247;DHT22;7726;48.820;9.248;2023-02-28T09:56:47;1.80;95.40
15247;DHT22;7726;48.820;9.248;2023-02-28T09:59:29;1.90;95.50
15247;DHT22;7726;48.820;9.248;2023-02-28T10:02:08;1.80;95.70
15247;DHT22;7726;48.820;9.248;2023-02-28T10:04:46;1.90;95.30
15247;DHT22;7726;48.820;9.248;2023-02-28T10:07:24;1.80;95.20
15247;DHT22;7726;48.820;9.248;2023-02-28T10:09:54;1.90;95.60
15247;DHT22;7726;48.820;9.248;2023-02-28T10:12:23;2.10;95.20
15247;DHT22;7726;48.820;9.248;2023-02-28T10:14:52;2.10;94.90
15247;DHT22;7726;48.820;9.248;2023-02-28T10:17:22;2.30;95.00
15247;DHT22;7726;48.820;9.248;2023-02-28T10:19:58;2.40;94.80
15247;DHT22;7726;48.820;9.248;2023-02-28T10:22:31;2.40;94.90
15247;DHT22;7726;48.820;9.248;2023-02-28T10:25:00;3.10;94.20
15247;DHT22;7726;48.820;9.248;2023-02-28T10:27:30;2.90;93.50
15247;DHT22;7726;48.820;9.248;2023-02-28T10:29:58;2.60;94.30
15247;DHT22;7726;48.820;9.248;2023-02-28T10:32:27;2.30;94.80
15247;DHT22;7726;48.820;9.248;2023-02-28T10:34:59;2.70;94.50
15247;DHT22;7726;48.820;9.248;2023-02-28T10:37:26;2.60;94.10
15247;DHT22;7726;48.820;9.248;2023-02-28T10:39:53;2.20;94.70
15247;DHT22;7726;48.820;9.248;2023-02-28T10:42:25;2.90;94.20
15247;DHT22;7726;48.820;9.248;2023-02-28T10:45:06;2.70;94.00
15247;DHT22;7726;48.820;9.248;2023-02-28T10:47:35;2.60;94.00
15247;DHT22;7726;48.820;9.248;2023-02-28T10:50:05;2.80;93.80
15247;DHT22;7726;48.820;9.248;2023-02-28T10:52:33;3.20;93.50
15247;DHT22;7726;48.820;9.248;2023-02-28T10:55:20;3.30;93.20
15247;DHT22;7726;48.820;9.248;2023-02-28T10:57:48;3.10;93.00
15247;DHT22;7726;48.820;9.248;2023-02-28T11:00:17;3.60;93.30
15247;DHT22;7726;48.820;9.248;2023-02-28T11:02:44;3.80;92.20
15247;DHT22;7726;48.820;9.248;2023-02-28T11:05:28;3.80;92.10
15247;DHT22;7726;48.820;9.248;2023-02-28T11:07:56;3.60;92.20
15247;DHT22;7726;48.820;9.248;2023-02-28T11:10:28;3.50;92.50
15247;DHT22;7726;48.820;9.248;2023-02-28T11:12:58;4.00;92.30
15247;DHT22;7726;48.820;9.248;2023-02-28T11:15:26;3.70;92.00
15247;DHT22;7726;48.820;9.248;2023-02-28T11:17:54;3.60;92.10
15247;DHT22;7726;48.820;9.248;2023-02-28T11:20:24;3.70;92.90
15247;DHT22;7726;48.820;9.248;2023-02-28T11:22:53;3.90;92.20
15247;DHT22;7726;48.820;9.248;2023-02-28T11:25:23;3.70;92.10
15247;DHT22;7726;48.820;9.248;2023-02-28T11:27:53;3.60;92.50
15247;DHT22;7726;48.820;9.248;2023-02-28T11:30:29;3.60;92.40
15247;DHT22;7726;48.820;9.248;2023-02-28T11:32:57;3.80;92.50
15247;DHT22;7726;48.820;9.248;2023-02-28T11:35:27;3.90;92.20
15247;DHT22;7726;48.820;9.248;2023-02-28T11:37:57;3.90;92.30
15247;DHT22;7726;48.820;9.248;2023-02-28T11:40:30;4.20;92.10
15247;DHT22;7726;48.820;9.248;2023-02-28T11:43:10;3.90;91.90
15247;DHT22;7726;48.820;9.248;2023-02-28T11:45:48;3.80;92.50
15247;DHT22;7726;48.820;9.248;2023-02-28T11:48:22;4.00;92.10
15247;DHT22;7726;48.820;9.248;2023-02-28T11:51:00;3.70;92.50
15247;DHT22;7726;48.820;9.248;2023-02-28T11:53:48;4.00;92.10
15247;DHT22;7726;48.820;9.248;2023-02-28T11:56:22;3.90;92.10
15247;DHT22;7726;48.820;9.248;2023-02-28T11:58:59;3.90;92.40
15247;DHT22;7726;48.820;9.248;2023-02-28T12:01:38;4.30;92.20
15247;DHT22;7726;48.820;9.248;2023-02-28T12:04:22;3.90;92.00
15247;DHT22;7726;48.820;9.248;2023-02-28T12:06:56;3.70;92.70
15247;DHT22;7726;48.820;9.248;2023-02-28T12:09:41;3.70;92.70
15247;DHT22;7726;48.820;9.248;2023-02-28T12:12:20;3.80;92.70
15247;DHT22;7726;48.820;9.248;2023-02-28T12:15:13;3.90;92.70
15247;DHT22;7726;48.820;9.248;2023-02-28T12:17:51;3.90;92.20
15247;DHT22;7726;48.820;9.248;2023-02-28T12:20:28;4.30;92.50
15247;DHT22;7726;48.820;9.248;2023-02-28T12:23:11;4.40;92.30
15247;DHT22;7726;48.820;9.248;2023-02-28T12:26:00;4.30;91.90
15247;DHT22;7726;48.820;9.248;2023-02-28T12:28:33;4.30;91.80
15247;DHT22;7726;48.820;9.248;2023-02-28T12:31:03;3.90;91.80
15247;DHT22;7726;48.820;9.248;2023-02-28T12:33:34;4.00;92.30
15247;DHT22;7726;48.820;9.248;2023-02-28T12:36:05;4.00;91.70
15247;DHT22;7726;48.820;9.248;2023-02-28T12:38:40;4.10;91.40
15247;DHT22;7726;48.820;9.248;2023-02-28T12:41:13;4.20;92.00
15247;DHT22;7726;48.820;9.248;2023-02-28T12:43:44;4.10;91.40
15247;DHT22;7726;48.820;9.248;2023-02-28T12:46:14;4.20;91.20
15247;DHT22;7726;48.820;9.248;2023-02-28T12:48:45;4.40;91.10
15247;DHT22;7726;48.820;9.248;2023-02-28T12:51:13;4.40;92.00
15247;DHT22;7726;48.820;9.248;2023-02-28T12:53:54;4.50;92.40
15247;DHT22;7726;48.820;9.248;2023-02-28T12:56:34;4.30;92.30
15247;DHT22;7726;48.820;9.248;2023-02-28T12:59:10;4.30;92.10
15247;DHT22;7726;48.820;9.248;2023-02-28T13:05:13;4.30;91.40
15247;DHT22;7726;48.820;9.248;2023-02-28T13:08:20;4.30;91.80
15247;DHT22;7726;48.820;9.248;2023-02-28T13:10:51;4.30;91.90
15247;DHT22;7726;48.820;9.248;2023-02-28T13:13:23;4.40;91.50
15247;DHT22;7726;48.820;9.248;2023-02-28T13:16:12;4.30;91.00
15247;DHT22;7726;48.820;9.248;2023-02-28T13:18:40;4.40;91.60
15247;DHT22;7726;48.820;9.248;2023-02-28T13:21:21;4.50;91.30
15247;DHT22;7726;48.820;9.248;2023-02-28T13:24:01;4.40;91.50
15247;DHT22;7726;48.820;9.248;2023-02-28T13:29:36;4.20;91.40
15247;DHT22;7726;48.820;9.248;2023-02-28T13:38:37;4.60;90.90
15247;DHT22;7726;48.820;9.248;2023-02-28T13:41:45;4.30;91.20
15247;DHT22;7726;48.820;9.248;2023-02-28T13:44:14;4.50;91.20
15247;DHT22;7726;48.820;9.248;2023-02-28T13:49:47;4.70;90.60
15247;DHT22;7726;48.820;9.248;2023-02-28T13:52:18;4.80;90.50
15247;DHT22;7726;48.820;9.248;2023-02-28T13:54:59;4.50;91.00
15247;DHT22;7726;48.820;9.248;2023-02-28T13:57:37;4.70;90.70
15247;DHT22;7726;48.820;9.248;2023-02-28T14:00:19;4.60;90.40
15247;DHT22;7726;48.820;9.248;2023-02-28T14:03:13;4.60;90.50
15247;DHT22;7726;48.820;9.248;2023-02-28T14:05:42;4.60;90.60
15247;DHT22;7726;48.820;9.248;2023-02-28T14:08:15;4.80;90.50
15247;DHT22;7726;48.820;9.248;2023-02-28T14:10:45;4.80;90.30
15247;DHT22;7726;48.820;9.248;2023-02-28T14:13:38;4.90;89.90
15247;DHT22;7726;48.820;9.248;2023-02-28T14:16:10;4.90;90.10
15247;DHT22;7726;48.820;9.248;2023-02-28T14:18:42;4.90;90.60
15247;DHT22;7726;48.820;9.248;2023-02-28T14:21:21;4.80;90.40
15247;DHT22;7726;48.820;9.248;2023-02-28T14:24:21;4.70;90.50
15247;DHT22;7726;48.820;9.248;2023-02-28T14:27:08;4.70;90.40
15247;DHT22;7726;48.820;9.248;2023-02-28T14:32:35;5.10;89.40
15247;DHT22;7726;48.820;9.248;2023-02-28T14:35:16;4.90;90.60
15247;DHT22;7726;48.820;9.248;2023-02-28T14:37:47;5.00;90.20
15247;DHT22;7726;48.820;9.248;2023-02-28T14:40:16;5.10;90.40
15247;DHT22;7726;48.820;9.248;2023-02-28T14:42:48;5.10;90.50
15247;DHT22;7726;48.820;9.248;2023-02-28T14:45:18;5.00;90.30
15247;DHT22;7726;48.820;9.248;2023-02-28T14:47:46;5.00;90.40
15247;DHT22;7726;48.820;9.248;2023-02-28T14:50:18;5.10;90.70
15247;DHT22;7726;48.820;9.248;2023-02-28T14:52:48;4.90;90.50
15247;DHT22;7726;48.820;9.248;2023-02-28T14:55:18;5.00;90.70
15247;DHT22;7726;48.820;9.248;2023-02-28T14:57:52;5.10;90.50
15247;DHT22;7726;48.820;9.248;2023-02-28T15:00:23;4.90;90.60
15247;DHT22;7726;48.820;9.248;2023-02-28T15:02:50;4.80;90.70
15247;DHT22;7726;48.820;9.248;2023-02-28T15:05:23;4.90;90.30
15247;DHT22;7726;48.820;9.248;2023-02-28T15:08:02;4.90;90.40
15247;DHT22;7726;48.820;9.248;2023-02-28T15:10:29;4.90;90.10
15247;DHT22;7726;48.820;9.248;2023-02-28T15:12:58;4.90;91.00
15247;DHT22;7726;48.820;9.248;2023-02-28T15:15:29;5.10;90.80
15247;DHT22;7726;48.820;9.248;2023-02-28T15:18:00;4.80;91.00
15247;DHT22;7726;48.820;9.248;2023-02-28T15:20:29;4.80;91.10
15247;DHT22;7726;48.820;9.248;2023-02-28T15:22:57;4.70;91.20
15247;DHT22;7726;48.820;9.248;2023-02-28T15:25:25;4.80;90.80
15247;DHT22;7726;48.820;9.248;2023-02-28T15:27:54;4.90;91.00
15247;DHT22;7726;48.820;9.248;2023-02-28T15:30:26;4.70;90.70
15247;DHT22;7726;48.820;9.248;2023-02-28T15:33:05;4.70;91.00
15247;DHT22;7726;48.820;9.248;2023-02-28T15:35:34;4.60;91.30
15247;DHT22;7726;48.820;9.248;2023-02-28T15:38:04;4.60;91.40
15247;DHT22;7726;48.820;9.248;2023-02-28T15:40:42;4.80;91.10
15247;DHT22;7726;48.820;9.248;2023-02-28T15:43:14;4.70;91.30
15247;DHT22;7726;48.820;9.248;2023-02-28T15:45:45;4.60;91.30
15247;DHT22;7726;48.820;9.248;2023-02-28T15:48:20;4.50;91.70
15247;DHT22;7726;48.820;9.248;2023-02-28T15:50:51;4.50;91.70
15247;DHT22;7726;48.820;9.248;2023-02-28T15:53:23;4.40;91.60
15247;DHT22;7726;48.820;9.248;2023-02-28T15:55:55;4.40;91.70
15247;DHT22;7726;48.820;9.248;2023-02-28T15:58:24;4.30;92.20
15247;DHT22;7726;48.820;9.248;2023-02-28T16:01:06;4.30;92.10
15247;DHT22;7726;48.820;9.248;2023-02-28T16:03:43;4.20;92.40
15247;DHT22;7726;48.820;9.248;2023-02-28T16:06:32;4.20;92.20
15247;DHT22;7726;48.820;9.248;2023-02-28T16:09:01;4.30;91.80
15247;DHT22;7726;48.820;9.248;2023-02-28T16:11:28;4.20;92.60
15247;DHT22;7726;48.820;9.248;2023-02-28T16:13:57;4.20;92.30
15247;DHT22;7726;48.820;9.248;2023-02-28T16:16:24;4.20;92.50
15247;DHT22;7726;48.820;9.248;2023-02-28T16:18:52;4.20;92.50
15247;DHT22;7726;48.820;9.248;2023-02-28T16:21:19;4.10;92.60
15247;DHT22;7726;48.820;9.248;2023-02-28T16:23:46;4.00;93.00
15247;DHT22;7726;48.820;9.248;2023-02-28T16:26:19;4.10;92.60
15247;DHT22;7726;48.820;9.248;2023-02-28T16:28:47;4.00;92.70
15247;DHT22;7726;48.820;9.248;2023-02-28T16:31:14;3.80;92.90
15247;DHT22;7726;48.820;9.248;2023-02-28T16:33:42;3.80;93.10
15247;DHT22;7726;48.820;9.248;2023-02-28T16:36:14;3.90;92.60
15247;DHT22;7726;48.820;9.248;2023-02-28T16:38:41;4.00;92.40
15247;DHT22;7726;48.820;9.248;2023-02-28T16:41:12;3.80;92.80
15247;DHT22;7726;48.820;9.248;2023-02-28T16:43:46;3.60;93.60